createdAt,value
2023-03-02T00:00:02.239Z,-3.8
2023-03-02T00:15:02.673Z,-3.5
2023-03-02T00:30:03.120Z,-3.7
2023-03-02T00:45:02.702Z,-3.3
2023-03-02T01:00:03.008Z,-3.4
2023-03-02T01:15:02.604Z,-2.8
2023-03-02T01:30:02.899Z,-2.3
2023-03-02T01:45:02.296Z,-1.8
2023-03-02T02:00:02.754Z,-1.2
2023-03-02T02:15:03.200Z,-1.2
2023-03-02T02:30:02.704Z,-1.4
2023-03-02T02:45:03.061Z,-1.7
2023-03-02T03:00:02.707Z,-1.7
2023-03-02T03:15:02.935Z,-1.8
2023-03-02T03:30:02.349Z,-1.8
2023-03-02T03:45:02.808Z,-1.8
2023-03-02T04:00:02.257Z,-1.9
2023-03-02T04:15:02.731Z,-1.9
2023-03-02T04:30:03.182Z,-1.9
2023-03-02T04:45:02.752Z,-1.7
2023-03-02T05:00:03.014Z,-1.6
2023-03-02T05:15:02.472Z,-1.5
2023-03-02T05:30:02.910Z,-1.4
2023-03-02T05:45:02.381Z,-1.4
2023-03-02T06:00:02.790Z,-1.3
2023-03-02T06:15:03.225Z,-1.1
2023-03-02T06:30:02.777Z,-1.3
2023-03-02T06:45:03.096Z,-1.0
2023-03-02T07:00:02.747Z,-0.9
2023-03-02T07:15:02.997Z,-0.7
2023-03-02T07:30:02.409Z,-0.6
2023-03-02T07:45:02.876Z,-0.5
2023-03-02T08:00:02.307Z,-0.5
2023-03-02T08:15:04.899Z,-0.3
2023-03-02T08:30:02.188Z,-0.2
2023-03-02T08:45:02.821Z,0.0
2023-03-02T09:00:02.031Z,0.3
2023-03-02T09:15:02.490Z,0.5
2023-03-02T09:30:02.940Z,0.4
2023-03-02T09:45:02.372Z,0.5
2023-03-02T10:00:16.491Z,1.2
2023-03-02T10:15:03.235Z,1.0
2023-03-02T10:30:02.819Z,1.8
2023-03-02T10:45:03.115Z,3.4
2023-03-02T11:00:02.516Z,4.2
2023-03-02T11:15:02.967Z,5.0
2023-03-02T11:30:02.390Z,5.7
2023-03-02T11:45:02.841Z,5.4
2023-03-02T12:00:03.270Z,6.0
2023-03-02T12:15:02.846Z,6.3
2023-03-02T12:30:02.180Z,6.7
2023-03-02T12:45:02.641Z,6.6
2023-03-02T13:00:03.025Z,6.4
2023-03-02T13:15:02.449Z,6.2
2023-03-02T13:30:02.900Z,5.7
2023-03-02T13:45:02.315Z,5.4
2023-03-02T14:00:02.858Z,5.2
2023-03-02T14:15:02.295Z,4.6
2023-03-02T14:30:02.852Z,4.0
2023-03-02T14:45:02.071Z,3.3
2023-03-02T15:00:02.529Z,3.1
2023-03-02T15:15:02.977Z,2.9
2023-03-02T15:30:02.400Z,2.7
2023-03-02T15:45:02.909Z,2.6
2023-03-02T16:00:04.874Z,2.5
2023-03-02T16:15:02.883Z,2.5
2023-03-02T16:30:02.146Z,2.3
2023-03-02T16:45:02.616Z,2.2
2023-03-02T17:00:03.063Z,2.1
2023-03-02T17:15:02.484Z,1.9
2023-03-02T17:30:02.916Z,1.6
2023-03-02T17:45:02.372Z,1.7
2023-03-02T18:00:02.930Z,1.7
2023-03-02T18:15:02.239Z,1.5
2023-03-02T18:30:02.901Z,1.3
2023-03-02T18:45:02.067Z,1.2
2023-03-02T19:00:02.504Z,1.0
2023-03-02T19:15:02.952Z,0.9
2023-03-02T19:30:02.404Z,0.7
2023-03-02T19:45:02.919Z,0.6
2023-03-02T20:00:02.416Z,0.6
2023-03-02T20:15:02.920Z,0.6
2023-03-02T20:30:02.184Z,0.7
2023-03-02T20:45:02.644Z,0.7
2023-03-02T21:00:03.047Z,0.8
2023-03-02T21:15:02.467Z,0.7
2023-03-02T21:30:02.930Z,0.7
2023-03-02T21:45:02.343Z,0.7
2023-03-02T22:00:02.945Z,0.8
2023-03-02T22:15:02.229Z,0.9
2023-03-02T22:30:02.679Z,0.9
2023-03-02T22:45:03.133Z,0.9
2023-03-02T23:00:02.534Z,0.8
2023-03-02T23:15:03.001Z,0.8
2023-03-02T23:30:02.401Z,0.7
2023-03-02T23:45:02.964Z,0.9
